Time;durP1;ratioP1;P1;durP2;ratioP2;P2;SDS_P1;SDS_P2;PMS_P1;PMS_P2;Temp;Humidity;BMP_temperature;BMP_pressure;BME280_temperature;BME280_humidity;BME280_pressure;Samples;Min_cycle;Max_cycle;Signal;HPM_P1;HPM_P2
2021/05/09 00:00:55;;;;;;;3.60;2.97;;;;;;;;;;5009657;28;20253;-62
2021/05/09 00:03:21;;;;;;;3.53;3.20;;;;;;;;;;5009372;28;20237;-63
2021/05/09 00:05:46;;;;;;;3.97;3.30;;;;;;;;;;5008247;28;20198;-63
2021/05/09 00:08:14;;;;;;;5.37;3.30;;;;;;;;;;5009023;28;20187;-62
2021/05/09 00:10:40;;;;;;;3.70;3.30;;;;;;;;;;5006528;28;20246;-63
2021/05/09 00:13:06;;;;;;;3.97;2.70;;;;;;;;;;5016171;28;20210;-61
2021/05/09 00:15:31;;;;;;;3.67;2.87;;;;;;;;;;5009620;28;20203;-63
2021/05/09 00:17:59;;;;;;;3.57;2.83;;;;;;;;;;5008004;23;20232;-61
2021/05/09 00:20:24;;;;;;;2.50;2.30;;;;;;;;;;4982635;28;20203;-61
2021/05/09 00:22:52;;;;;;;3.00;2.70;;;;;;;;;;4998485;28;20676;-61
2021/05/09 00:25:22;;;;;;;3.73;2.67;;;;;;;;;;4990123;28;20725;-60
2021/05/09 00:27:48;;;;;;;3.20;2.77;;;;;;;;;;4982746;28;20263;-62
2021/05/09 00:30:16;;;;;;;3.83;2.90;;;;;;;;;;4970694;28;20204;-59
2021/05/09 00:32:43;;;;;;;5.23;2.60;;;;;;;;;;4969076;28;20200;-61
2021/05/09 00:35:09;;;;;;;2.37;2.17;;;;;;;;;;4970221;28;20196;-62
2021/05/09 00:37:36;;;;;;;2.67;2.40;;;;;;;;;;4966301;28;20215;-63
2021/05/09 00:40:07;;;;;;;1.33;0.77;;;;;;;;;;4966512;28;20196;-63
2021/05/09 00:42:32;;;;;;;2.97;1.80;;;;;;;;;;4967716;28;20196;-63
2021/05/09 00:44:57;;;;;;;1.00;0.90;;;;;;;;;;4970563;28;20193;-63
2021/05/09 00:47:28;;;;;;;3.47;1.80;;;;;;;;;;4968593;28;20216;-61
2021/05/09 00:49:57;;;;;;;3.63;1.97;;;;;;;;;;4970113;28;20195;-62
2021/05/09 00:52:29;;;;;;;3.13;2.00;;;;;;;;;;4970329;28;20201;-63
2021/05/09 00:55:03;;;;;;;1.80;1.60;;;;;;;;;;4967895;28;20311;-62
2021/05/09 00:57:34;;;;;;;4.87;1.87;;;;;;;;;;4968456;28;20223;-61
2021/05/09 01:00:03;;;;;;;1.87;1.60;;;;;;;;;;4969382;28;20833;-60
2021/05/09 01:02:31;;;;;;;2.97;1.40;;;;;;;;;;4962116;28;20189;-62
2021/05/09 01:04:58;;;;;;;2.20;2.00;;;;;;;;;;4969267;28;20208;-62
2021/05/09 01:07:26;;;;;;;1.97;1.83;;;;;;;;;;4969159;28;20275;-61
2021/05/09 01:09:51;;;;;;;2.93;2.23;;;;;;;;;;4965428;28;20200;-62
2021/05/09 01:12:24;;;;;;;1.80;1.60;;;;;;;;;;4970689;28;20188;-62
2021/05/09 01:14:54;;;;;;;3.00;1.63;;;;;;;;;;4969268;28;20274;-62
2021/05/09 01:17:22;;;;;;;2.40;1.50;;;;;;;;;;4968975;28;20214;-63
2021/05/09 01:19:49;;;;;;;2.33;1.67;;;;;;;;;;4967649;28;20209;-63
2021/05/09 01:22:17;;;;;;;2.13;1.60;;;;;;;;;;4970014;28;20256;-63
2021/05/09 01:24:44;;;;;;;3.10;1.93;;;;;;;;;;4968863;28;20228;-62
2021/05/09 01:27:09;;;;;;;1.60;1.50;;;;;;;;;;4963750;28;20200;-63
2021/05/09 01:29:35;;;;;;;2.30;2.03;;;;;;;;;;4983221;28;20644;-62
2021/05/09 01:32:03;;;;;;;2.33;1.70;;;;;;;;;;4968585;28;20675;-62
2021/05/09 01:34:36;;;;;;;2.17;1.93;;;;;;;;;;4965769;28;20561;-62
2021/05/09 01:37:06;;;;;;;4.10;1.93;;;;;;;;;;4970759;28;20223;-62
2021/05/09 01:39:32;;;;;;;2.00;1.70;;;;;;;;;;4965659;28;20189;-61
2021/05/09 01:42:02;;;;;;;2.20;1.73;;;;;;;;;;4969073;28;20196;-61
2021/05/09 01:44:29;;;;;;;2.23;1.80;;;;;;;;;;4962353;28;20193;-61
2021/05/09 01:46:59;;;;;;;2.40;2.20;;;;;;;;;;4967800;28;20200;-60
2021/05/09 01:49:29;;;;;;;2.10;1.90;;;;;;;;;;4974200;28;20814;-62
2021/05/09 01:51:58;;;;;;;2.00;1.80;;;;;;;;;;4973416;28;20329;-62
2021/05/09 01:54:30;;;;;;;2.97;1.97;;;;;;;;;;4969411;28;20654;-61
2021/05/09 01:56:56;;;;;;;4.03;2.00;;;;;;;;;;4967322;28;20198;-62
2021/05/09 01:59:21;;;;;;;4.40;2.00;;;;;;;;;;4980594;28;20228;-61
2021/05/09 02:01:51;;;;;;;1.90;1.67;;;;;;;;;;4963712;28;20193;-61
2021/05/09 02:04:16;;;;;;;2.73;2.30;;;;;;;;;;4969540;28;20279;-61
2021/05/09 02:06:41;;;;;;;3.60;1.90;;;;;;;;;;4968431;28;21526;-61
2021/05/09 02:09:09;;;;;;;2.00;1.80;;;;;;;;;;4966998;28;20283;-59
2021/05/09 02:11:34;;;;;;;3.47;1.90;;;;;;;;;;4967097;28;20573;-61
2021/05/09 02:13:59;;;;;;;2.73;1.90;;;;;;;;;;4968171;28;20208;-61
2021/05/09 02:16:25;;;;;;;1.90;1.77;;;;;;;;;;4968752;28;20776;-62
2021/05/09 02:18:52;;;;;;;1.90;1.50;;;;;;;;;;4963507;28;20279;-62
2021/05/09 02:21:18;;;;;;;2.70;1.97;;;;;;;;;;4968681;28;20760;-61
2021/05/09 02:23:43;;;;;;;1.97;1.77;;;;;;;;;;4968986;28;20201;-62
2021/05/09 02:26:10;;;;;;;3.07;2.10;;;;;;;;;;4966802;28;20188;-61
2021/05/09 02:28:38;;;;;;;3.83;2.33;;;;;;;;;;4966039;28;20219;-61
2021/05/09 02:31:08;;;;;;;2.20;2.00;;;;;;;;;;4968307;28;20665;-62
2021/05/09 02:33:35;;;;;;;2.30;2.10;;;;;;;;;;4967176;28;20306;-61
2021/05/09 02:36:05;;;;;;;3.53;2.10;;;;;;;;;;4967235;28;20239;-64
2021/05/09 02:38:33;;;;;;;3.20;2.07;;;;;;;;;;4958065;28;20212;-63
2021/05/09 02:41:03;;;;;;;2.97;2.20;;;;;;;;;;4968608;28;20539;-61
2021/05/09 02:43:30;;;;;;;5.20;2.50;;;;;;;;;;4960397;28;20228;-61
2021/05/09 02:45:58;;;;;;;2.23;1.80;;;;;;;;;;4967105;28;20563;-62
2021/05/09 02:48:26;;;;;;;1.77;1.63;;;;;;;;;;4965651;28;20227;-63
2021/05/09 02:50:51;;;;;;;2.80;2.30;;;;;;;;;;4969413;28;20751;-61
2021/05/09 02:53:19;;;;;;;3.63;2.43;;;;;;;;;;4968392;28;20193;-61
2021/05/09 02:55:46;;;;;;;2.40;2.20;;;;;;;;;;4965556;28;20263;-60
2021/05/09 02:58:13;;;;;;;6.47;2.70;;;;;;;;;;4973503;28;20219;-61
2021/05/09 03:00:43;;;;;;;3.03;2.30;;;;;;;;;;4963255;28;20253;-61
2021/05/09 03:03:11;;;;;;;4.27;2.97;;;;;;;;;;4967143;28;20180;-61
2021/05/09 03:05:38;;;;;;;2.90;2.50;;;;;;;;;;4966377;28;20200;-63
2021/05/09 03:08:06;;;;;;;2.40;2.10;;;;;;;;;;4961668;28;20630;-62
2021/05/09 03:10:33;;;;;;;4.03;2.90;;;;;;;;;;4966007;28;20648;-62
2021/05/09 03:13:03;;;;;;;3.57;2.57;;;;;;;;;;4969776;28;20219;-61
2021/05/09 03:15:28;;;;;;;3.07;2.63;;;;;;;;;;4969106;28;20188;-61
2021/05/09 03:17:56;;;;;;;4.67;2.63;;;;;;;;;;4969203;28;20278;-62
2021/05/09 03:20:21;;;;;;;4.47;2.40;;;;;;;;;;4970482;28;20204;-61
2021/05/09 03:22:51;;;;;;;4.07;1.90;;;;;;;;;;4970428;28;20209;-62
2021/05/09 03:25:17;;;;;;;2.50;2.30;;;;;;;;;;4984890;28;20203;-62
2021/05/09 03:27:44;;;;;;;2.30;2.10;;;;;;;;;;4970566;28;20852;-64
2021/05/09 03:30:10;;;;;;;3.20;2.37;;;;;;;;;;4965180;28;20864;-61
2021/05/09 03:32:40;;;;;;;1.70;1.60;;;;;;;;;;4971867;28;20279;-62
2021/05/09 03:35:10;;;;;;;3.23;2.10;;;;;;;;;;4971094;28;20188;-64
2021/05/09 03:37:38;;;;;;;6.10;2.10;;;;;;;;;;4971509;28;20209;-61
2021/05/09 03:40:08;;;;;;;2.40;2.10;;;;;;;;;;4972323;28;20199;-61
2021/05/09 03:42:36;;;;;;;3.40;2.53;;;;;;;;;;4970978;28;20748;-62
2021/05/09 03:45:02;;;;;;;3.37;1.97;;;;;;;;;;4967484;28;20232;-62
2021/05/09 03:47:27;;;;;;;2.90;1.67;;;;;;;;;;4969746;28;20772;-62
2021/05/09 03:49:53;;;;;;;2.47;1.97;;;;;;;;;;4970646;28;20196;-63
2021/05/09 03:52:19;;;;;;;2.50;2.20;;;;;;;;;;4970702;28;20184;-62
2021/05/09 03:54:46;;;;;;;2.70;2.50;;;;;;;;;;4969596;28;20751;-61
2021/05/09 03:57:17;;;;;;;2.47;2.10;;;;;;;;;;4970902;28;20197;-60
2021/05/09 03:59:44;;;;;;;3.30;2.30;;;;;;;;;;4967236;28;20807;-60
2021/05/09 04:02:09;;;;;;;3.07;2.27;;;;;;;;;;4972782;28;20199;-61
2021/05/09 04:04:35;;;;;;;3.33;2.20;;;;;;;;;;4971373;28;20267;-61
2021/05/09 04:07:05;;;;;;;2.30;2.10;;;;;;;;;;4968552;28;20185;-61
2021/05/09 04:09:30;;;;;;;2.80;2.17;;;;;;;;;;4967548;28;20295;-62
2021/05/09 04:12:00;;;;;;;2.47;2.27;;;;;;;;;;4982073;28;20716;-64
2021/05/09 04:14:28;;;;;;;4.83;1.97;;;;;;;;;;4968175;28;20253;-62
2021/05/09 04:16:54;;;;;;;6.50;2.07;;;;;;;;;;4969665;28;20197;-62
2021/05/09 04:19:21;;;;;;;2.67;2.20;;;;;;;;;;4968002;28;20720;-62
2021/05/09 04:21:46;;;;;;;3.03;2.50;;;;;;;;;;4969585;28;20224;-63
2021/05/09 04:24:14;;;;;;;4.77;2.20;;;;;;;;;;4970495;28;20232;-63
2021/05/09 04:26:44;;;;;;;2.53;2.00;;;;;;;;;;4970074;28;20181;-61
2021/05/09 04:29:11;;;;;;;5.50;2.20;;;;;;;;;;4969367;28;20578;-62
2021/05/09 04:31:41;;;;;;;3.20;1.90;;;;;;;;;;4969926;28;20223;-62
2021/05/09 04:34:09;;;;;;;4.10;2.17;;;;;;;;;;4983632;28;20201;-62
2021/05/09 04:36:39;;;;;;;2.90;2.30;;;;;;;;;;4970672;28;20192;-61
2021/05/09 04:39:07;;;;;;;2.60;2.20;;;;;;;;;;4969409;28;20208;-62
2021/05/09 04:41:37;;;;;;;3.07;2.00;;;;;;;;;;4969733;28;20196;-63
2021/05/09 04:44:03;;;;;;;3.70;2.03;;;;;;;;;;4969373;28;20223;-62
2021/05/09 04:46:30;;;;;;;2.50;2.20;;;;;;;;;;4968418;28;20188;-63
2021/05/09 04:48:58;;;;;;;2.57;2.13;;;;;;;;;;4969203;28;20219;-63
2021/05/09 04:51:25;;;;;;;4.13;2.33;;;;;;;;;;4969967;28;20323;-62
2021/05/09 04:53:58;;;;;;;2.90;2.27;;;;;;;;;;4970842;28;20208;-63
2021/05/09 04:56:25;;;;;;;2.50;2.30;;;;;;;;;;4968251;28;20686;-62
2021/05/09 04:58:51;;;;;;;2.77;2.30;;;;;;;;;;4969033;28;20209;-61
2021/05/09 05:01:23;;;;;;;4.60;2.50;;;;;;;;;;4970818;28;20560;-63
2021/05/09 05:03:54;;;;;;;4.33;2.17;;;;;;;;;;4969065;28;20191;-63
2021/05/09 05:06:19;;;;;;;2.63;2.10;;;;;;;;;;4970201;28;20188;-63
2021/05/09 05:08:47;;;;;;;2.70;2.50;;;;;;;;;;4968362;28;20215;-61
2021/05/09 05:11:14;;;;;;;2.80;2.30;;;;;;;;;;4966098;28;20192;-62
2021/05/09 05:13:42;;;;;;;5.83;2.50;;;;;;;;;;4969338;28;20215;-62
2021/05/09 05:16:07;;;;;;;3.90;2.20;;;;;;;;;;4969577;28;20587;-62
2021/05/09 05:18:37;;;;;;;2.83;2.30;;;;;;;;;;4963066;28;20216;-62
2021/05/09 05:21:04;;;;;;;8.37;2.23;;;;;;;;;;4970233;28;20192;-62
2021/05/09 05:23:30;;;;;;;2.50;2.30;;;;;;;;;;4968992;28;20209;-63
2021/05/09 05:25:58;;;;;;;4.37;2.40;;;;;;;;;;4969128;28;20190;-62
2021/05/09 05:28:24;;;;;;;3.33;2.60;;;;;;;;;;4964569;28;20267;-62
2021/05/09 05:30:50;;;;;;;4.00;2.03;;;;;;;;;;4968164;28;20189;-63
2021/05/09 05:33:29;;;;;;;3.97;2.20;;;;;;;;;;4968330;28;20212;-61
2021/05/09 05:35:56;;;;;;;2.30;2.10;;;;;;;;;;4966843;28;20201;-62
2021/05/09 05:38:26;;;;;;;2.30;2.10;;;;;;;;;;4967480;28;20613;-63
2021/05/09 05:40:58;;;;;;;3.00;2.50;;;;;;;;;;4970104;28;20683;-62
2021/05/09 05:43:27;;;;;;;2.57;2.37;;;;;;;;;;4968348;28;20606;-62
2021/05/09 05:45:57;;;;;;;3.57;2.50;;;;;;;;;;4969849;28;20196;-61
2021/05/09 05:48:29;;;;;;;2.67;2.40;;;;;;;;;;4964749;28;20208;-62
2021/05/09 05:50:55;;;;;;;3.10;2.50;;;;;;;;;;4966233;28;20195;-62
2021/05/09 05:53:29;;;;;;;4.23;2.40;;;;;;;;;;4969050;28;20216;-63
2021/05/09 05:55:59;;;;;;;2.50;2.30;;;;;;;;;;4972614;28;20211;-62
2021/05/09 05:58:26;;;;;;;3.97;2.43;;;;;;;;;;4967736;28;20239;-62
2021/05/09 06:00:52;;;;;;;2.83;2.43;;;;;;;;;;4967866;28;20193;-61
2021/05/09 06:03:22;;;;;;;3.63;2.30;;;;;;;;;;4968806;28;20187;-64
2021/05/09 06:05:50;;;;;;;3.83;2.50;;;;;;;;;;4966496;28;20185;-62
2021/05/09 06:08:20;;;;;;;3.30;2.27;;;;;;;;;;4966692;28;20235;-63
2021/05/09 06:10:46;;;;;;;2.63;2.07;;;;;;;;;;4963463;28;20204;-62
2021/05/09 06:13:17;;;;;;;3.90;2.30;;;;;;;;;;4965633;28;20212;-61
2021/05/09 06:15:42;;;;;;;3.13;2.33;;;;;;;;;;4969756;28;20204;-61
2021/05/09 06:18:07;;;;;;;1.77;1.33;;;;;;;;;;4968209;28;20217;-62
2021/05/09 06:20:35;;;;;;;2.80;1.93;;;;;;;;;;4968109;28;20619;-62
2021/05/09 06:23:04;;;;;;;2.20;1.73;;;;;;;;;;4967055;28;20574;-62
2021/05/09 06:25:32;;;;;;;2.20;1.87;;;;;;;;;;4965307;28;20197;-62
2021/05/09 06:27:58;;;;;;;3.63;2.40;;;;;;;;;;4967154;28;20200;-63
2021/05/09 06:30:23;;;;;;;3.07;2.17;;;;;;;;;;4966382;28;20188;-61
2021/05/09 06:32:49;;;;;;;2.50;1.80;;;;;;;;;;4961388;28;20193;-61
2021/05/09 06:35:14;;;;;;;3.87;2.37;;;;;;;;;;4966531;28;20200;-62
2021/05/09 06:37:40;;;;;;;2.37;1.70;;;;;;;;;;4966601;28;20264;-61
2021/05/09 06:40:11;;;;;;;2.10;1.90;;;;;;;;;;4962528;28;20802;-63
2021/05/09 06:42:39;;;;;;;2.27;2.00;;;;;;;;;;4962154;28;20185;-62
2021/05/09 06:45:10;;;;;;;1.70;1.60;;;;;;;;;;4967939;28;20691;-62
2021/05/09 06:47:38;;;;;;;5.10;2.60;;;;;;;;;;4983512;28;20212;-61
2021/05/09 06:50:03;;;;;;;1.80;1.50;;;;;;;;;;4965579;28;20279;-62
2021/05/09 06:52:29;;;;;;;4.97;2.50;;;;;;;;;;4968417;28;20263;-61
2021/05/09 06:55:00;;;;;;;1.67;1.57;;;;;;;;;;4966572;28;20633;-61
2021/05/09 06:57:26;;;;;;;1.87;1.77;;;;;;;;;;4964065;28;20304;-61
2021/05/09 06:59:51;;;;;;;3.77;1.80;;;;;;;;;;4964020;28;20271;-63
2021/05/09 07:02:16;;;;;;;1.83;1.73;;;;;;;;;;4957561;28;20192;-62
2021/05/09 07:04:41;;;;;;;1.40;1.30;;;;;;;;;;4958699;28;20251;-64
2021/05/09 07:07:07;;;;;;;2.00;1.83;;;;;;;;;;4959699;28;20204;-63
2021/05/09 07:09:34;;;;;;;2.33;2.00;;;;;;;;;;4955027;28;20955;-63
2021/05/09 07:12:01;;;;;;;3.92;2.13;;;;;;;;;;4961268;28;20192;-64
2021/05/09 07:14:29;;;;;;;2.78;2.08;;;;;;;;;;4960442;28;20256;-64
2021/05/09 07:16:54;;;;;;;2.63;2.28;;;;;;;;;;4956721;28;20189;-64
2021/05/09 07:19:22;;;;;;;1.73;1.63;;;;;;;;;;4964802;28;20212;-63
2021/05/09 07:21:54;;;;;;;2.20;2.00;;;;;;;;;;4966989;28;20196;-63
2021/05/09 07:24:21;;;;;;;2.70;1.85;;;;;;;;;;4965028;28;20177;-64
2021/05/09 07:26:47;;;;;;;2.13;1.90;;;;;;;;;;4966818;28;20191;-63
2021/05/09 07:29:15;;;;;;;3.65;2.30;;;;;;;;;;4963916;28;20204;-63
2021/05/09 07:31:42;;;;;;;2.55;1.80;;;;;;;;;;4966400;28;20263;-63
2021/05/09 07:34:09;;;;;;;2.40;2.05;;;;;;;;;;4961705;28;20291;-63
2021/05/09 07:36:36;;;;;;;3.63;1.98;;;;;;;;;;4955475;28;20220;-63
2021/05/09 07:39:05;;;;;;;2.95;2.13;;;;;;;;;;4962183;28;20262;-64
2021/05/09 07:41:30;;;;;;;2.30;2.10;;;;;;;;;;4964926;28;20203;-64
2021/05/09 07:43:55;;;;;;;2.55;2.20;;;;;;;;;;4965633;28;20724;-65
2021/05/09 07:46:25;;;;;;;2.50;2.10;;;;;;;;;;4965656;28;20239;-62
2021/05/09 07:48:51;;;;;;;2.10;1.90;;;;;;;;;;4967791;28;20219;-62
2021/05/09 07:51:18;;;;;;;2.50;2.00;;;;;;;;;;4965126;28;20177;-63
2021/05/09 07:53:44;;;;;;;3.35;2.00;;;;;;;;;;4967458;28;20243;-63
2021/05/09 07:56:11;;;;;;;2.65;2.10;;;;;;;;;;4972381;28;20614;-63
2021/05/09 07:58:39;;;;;;;2.63;2.08;;;;;;;;;;4965307;28;20212;-62
2021/05/09 08:01:07;;;;;;;2.95;2.13;;;;;;;;;;4968221;28;20243;-63
2021/05/09 08:03:34;;;;;;;2.42;2.08;;;;;;;;;;4967643;28;20239;-63
2021/05/09 08:06:07;;;;;;;2.08;1.95;;;;;;;;;;4964350;28;20216;-63
2021/05/09 08:08:32;;;;;;;2.13;1.92;;;;;;;;;;4966477;28;20259;-61
2021/05/09 08:11:00;;;;;;;2.25;1.92;;;;;;;;;;4968279;28;20180;-61
2021/05/09 08:13:28;;;;;;;2.22;2.03;;;;;;;;;;4973994;28;20204;-61
2021/05/09 08:15:55;;;;;;;2.00;1.88;;;;;;;;;;4970381;28;20195;-62
2021/05/09 08:18:25;;;;;;;2.30;1.67;;;;;;;;;;4964821;28;20594;-62
2021/05/09 08:20:55;;;;;;;2.67;1.70;;;;;;;;;;4969728;28;20193;-62
2021/05/09 08:23:23;;;;;;;1.90;1.70;;;;;;;;;;4970643;28;20195;-62
2021/05/09 08:25:53;;;;;;;2.17;2.00;;;;;;;;;;4968385;28;20327;-62
2021/05/09 08:28:21;;;;;;;3.38;1.75;;;;;;;;;;4969617;28;20196;-63
2021/05/09 08:30:51;;;;;;;2.53;1.80;;;;;;;;;;4970498;28;20571;-61
2021/05/09 08:33:16;;;;;;;2.70;1.65;;;;;;;;;;4965632;28;20348;-62
2021/05/09 08:35:42;;;;;;;2.15;1.98;;;;;;;;;;4969853;28;20288;-63
2021/05/09 08:38:12;;;;;;;3.08;1.75;;;;;;;;;;4969897;28;20216;-62
2021/05/09 08:40:39;;;;;;;1.90;1.70;;;;;;;;;;4969861;28;20180;-61
2021/05/09 08:43:05;;;;;;;3.08;1.73;;;;;;;;;;4968612;28;20578;-61
2021/05/09 08:45:30;;;;;;;2.33;1.67;;;;;;;;;;4967767;28;20201;-62
2021/05/09 08:47:57;;;;;;;3.17;2.20;;;;;;;;;;4961773;28;20352;-59
2021/05/09 08:50:25;;;;;;;1.95;1.58;;;;;;;;;;4969843;28;20201;-61
2021/05/09 08:52:50;;;;;;;2.05;1.88;;;;;;;;;;4965675;28;20180;-60
2021/05/09 08:55:25;;;;;;;2.70;1.77;;;;;;;;;;4968806;28;20212;-61
2021/05/09 08:57:55;;;;;;;2.33;1.60;;;;;;;;;;4964180;28;20226;-64
2021/05/09 09:00:24;;;;;;;1.70;1.60;;;;;;;;;;4965694;28;20201;-61
2021/05/09 09:02:56;;;;;;;3.42;1.50;;;;;;;;;;4969066;28;20211;-61
2021/05/09 09:05:42;;;;;;;1.75;1.65;;;;;;;;;;4970185;28;20715;-61
2021/05/09 09:08:11;;;;;;;3.25;1.92;;;;;;;;;;4969871;28;20215;-60
2021/05/09 09:10:48;;;;;;;5.68;1.88;;;;;;;;;;4968222;28;20308;-61
2021/05/09 09:13:26;;;;;;;1.70;1.50;;;;;;;;;;4968025;28;20314;-60
2021/05/09 09:16:00;;;;;;;2.00;1.70;;;;;;;;;;4968696;28;20676;-60
2021/05/09 09:18:31;;;;;;;2.53;1.67;;;;;;;;;;4966010;28;20224;-61
2021/05/09 09:20:59;;;;;;;2.95;1.67;;;;;;;;;;4977606;28;20185;-61
2021/05/09 09:23:43;;;;;;;1.70;1.60;;;;;;;;;;4970573;28;20251;-61
2021/05/09 09:26:27;;;;;;;3.67;1.70;;;;;;;;;;4967159;28;20188;-60
2021/05/09 09:28:54;;;;;;;1.80;1.67;;;;;;;;;;4968281;28;20204;-61
2021/05/09 09:31:40;;;;;;;2.72;1.58;;;;;;;;;;4967045;28;20223;-61
2021/05/09 09:34:10;;;;;;;1.88;1.67;;;;;;;;;;4965597;28;20211;-63
2021/05/09 09:36:37;;;;;;;1.55;1.45;;;;;;;;;;4966678;28;20280;-61
2021/05/09 09:39:05;;;;;;;1.70;1.48;;;;;;;;;;4963664;28;20223;-61
2021/05/09 09:41:42;;;;;;;3.22;1.50;;;;;;;;;;4961399;28;20215;-61
2021/05/09 09:44:09;;;;;;;1.70;1.50;;;;;;;;;;4964641;28;20232;-61
2021/05/09 09:46:45;;;;;;;2.40;1.40;;;;;;;;;;4949476;28;20180;-62
2021/05/09 09:49:22;;;;;;;1.80;1.50;;;;;;;;;;4966790;28;20240;-61
2021/05/09 09:51:58;;;;;;;2.15;1.25;;;;;;;;;;4980631;28;20184;-61
2021/05/09 09:54:44;;;;;;;1.77;1.40;;;;;;;;;;4968784;28;20200;-61
2021/05/09 09:57:29;;;;;;;1.45;1.27;;;;;;;;;;4967432;28;20188;-59
2021/05/09 10:00:12;;;;;;;1.80;1.45;;;;;;;;;;4975964;28;20208;-60
2021/05/09 10:02:45;;;;;;;1.60;1.50;;;;;;;;;;4966188;28;20188;-58
2021/05/09 10:05:10;;;;;;;1.85;1.42;;;;;;;;;;4967665;28;20181;-61
2021/05/09 10:07:38;;;;;;;1.50;1.40;;;;;;;;;;4969178;28;20295;-60
2021/05/09 10:10:04;;;;;;;1.42;1.30;;;;;;;;;;4967877;28;20720;-60
2021/05/09 10:12:32;;;;;;;2.13;1.67;;;;;;;;;;4966705;28;20193;-60
2021/05/09 10:15:01;;;;;;;1.45;1.35;;;;;;;;;;4965783;28;20259;-61
2021/05/09 10:17:31;;;;;;;2.75;1.65;;;;;;;;;;4973211;28;20221;-61
2021/05/09 10:20:03;;;;;;;2.63;1.83;;;;;;;;;;4968454;28;20333;-61
2021/05/09 10:22:32;;;;;;;2.75;1.60;;;;;;;;;;4966962;28;20189;-61
2021/05/09 10:25:00;;;;;;;4.47;1.60;;;;;;;;;;4967200;28;20577;-61
2021/05/09 10:27:41;;;;;;;5.18;1.40;;;;;;;;;;4962807;28;20292;-61
2021/05/09 10:30:12;;;;;;;1.40;1.30;;;;;;;;;;4964046;28;20250;-61
2021/05/09 10:32:49;;;;;;;2.75;1.60;;;;;;;;;;4965031;28;20177;-60
2021/05/09 10:35:36;;;;;;;3.20;1.50;;;;;;;;;;4969229;28;20220;-61
2021/05/09 10:38:05;;;;;;;1.60;1.50;;;;;;;;;;4965558;28;20208;-61
2021/05/09 10:40:33;;;;;;;1.98;1.35;;;;;;;;;;4964163;28;20617;-61
2021/05/09 10:43:05;;;;;;;1.50;1.40;;;;;;;;;;4960275;28;20563;-60
2021/05/09 10:45:33;;;;;;;2.45;1.48;;;;;;;;;;4965707;28;20263;-61
2021/05/09 10:48:35;;;;;;;4.03;1.83;;;;;;;;;;4965526;28;20228;-60
2021/05/09 10:51:25;;;;;;;3.83;1.42;;;;;;;;;;4966206;28;20282;-60
2021/05/09 10:53:52;;;;;;;2.60;1.15;;;;;;;;;;4965525;28;20215;-58
2021/05/09 10:56:22;;;;;;;1.65;1.40;;;;;;;;;;4963567;28;20268;-61
2021/05/09 10:58:48;;;;;;;1.30;1.20;;;;;;;;;;4957349;28;20227;-60
2021/05/09 11:01:23;;;;;;;2.22;1.20;;;;;;;;;;4966116;28;20185;-60
2021/05/09 11:04:00;;;;;;;1.80;1.35;;;;;;;;;;4956181;28;20192;-62
2021/05/09 11:06:28;;;;;;;2.28;1.50;;;;;;;;;;4966895;28;20679;-61
2021/05/09 11:08:58;;;;;;;2.65;1.40;;;;;;;;;;4967849;28;20291;-62
2021/05/09 11:11:31;;;;;;;1.67;1.45;;;;;;;;;;4964967;28;20200;-60
2021/05/09 11:14:08;;;;;;;1.73;1.40;;;;;;;;;;4965869;28;20259;-57
2021/05/09 11:16:56;;;;;;;2.10;1.50;;;;;;;;;;4961986;28;20200;-58
2021/05/09 11:19:33;;;;;;;1.60;1.25;;;;;;;;;;4963478;28;20573;-59
2021/05/09 11:22:00;;;;;;;1.83;1.38;;;;;;;;;;4966471;28;20656;-61
2021/05/09 11:24:30;;;;;;;1.80;1.40;;;;;;;;;;4965995;28;20393;-63
2021/05/09 11:26:56;;;;;;;1.92;1.40;;;;;;;;;;4967875;28;20216;-59
2021/05/09 11:29:26;;;;;;;1.60;1.40;;;;;;;;;;4949164;28;20210;-61
2021/05/09 11:31:54;;;;;;;2.17;1.60;;;;;;;;;;4966090;28;20675;-60
2021/05/09 11:34:22;;;;;;;1.40;1.30;;;;;;;;;;4964986;28;20217;-60
2021/05/09 11:36:51;;;;;;;2.15;1.40;;;;;;;;;;4978276;28;20189;-58
2021/05/09 11:39:28;;;;;;;3.78;1.40;;;;;;;;;;4970816;28;20357;-59
2021/05/09 11:42:00;;;;;;;4.38;1.48;;;;;;;;;;4969815;28;20196;-61
2021/05/09 11:44:50;;;;;;;1.77;1.40;;;;;;;;;;4967028;28;20193;-60
2021/05/09 11:47:23;;;;;;;3.35;1.40;;;;;;;;;;4966650;28;20317;-59
2021/05/09 11:49:50;;;;;;;2.10;1.23;;;;;;;;;;4968841;28;20210;-60
2021/05/09 11:52:27;;;;;;;2.58;1.35;;;;;;;;;;4972040;28;20195;-60
2021/05/09 11:55:02;;;;;;;5.20;1.10;;;;;;;;;;4969576;28;20208;-59
2021/05/09 11:57:30;;;;;;;2.42;1.08;;;;;;;;;;4968697;28;20216;-60
2021/05/09 12:00:00;;;;;;;1.67;0.90;;;;;;;;;;4970509;28;20735;-59
2021/05/09 12:02:33;;;;;;;1.30;1.02;;;;;;;;;;4968006;28;20193;-60
2021/05/09 12:05:03;;;;;;;1.33;1.23;;;;;;;;;;4962850;28;20173;-58
2021/05/09 12:07:30;;;;;;;1.90;1.20;;;;;;;;;;4986830;28;20228;-60
2021/05/09 12:10:06;;;;;;;1.50;1.40;;;;;;;;;;4968509;28;20188;-61
2021/05/09 12:12:36;;;;;;;1.58;1.35;;;;;;;;;;4960407;28;20199;-58
2021/05/09 12:15:06;;;;;;;1.98;1.55;;;;;;;;;;4960408;28;20292;-60
2021/05/09 12:17:31;;;;;;;2.15;1.10;;;;;;;;;;4961007;28;20295;-59
2021/05/09 12:20:02;;;;;;;3.58;1.50;;;;;;;;;;4965768;28;20311;-59
2021/05/09 12:22:41;;;;;;;3.25;1.30;;;;;;;;;;4948982;28;20189;-58
2021/05/09 12:25:09;;;;;;;1.52;1.35;;;;;;;;;;4952896;28;20184;-60
2021/05/09 12:27:44;;;;;;;2.58;1.33;;;;;;;;;;4949709;28;22472;-60
2021/05/09 12:30:19;;;;;;;1.23;1.13;;;;;;;;;;4951118;28;20283;-60
2021/05/09 12:32:44;;;;;;;1.52;1.10;;;;;;;;;;4951462;28;20895;-58
2021/05/09 12:35:15;;;;;;;1.77;1.20;;;;;;;;;;4957382;28;20208;-58
2021/05/09 12:37:43;;;;;;;1.40;1.30;;;;;;;;;;4962742;28;20213;-58
2021/05/09 12:42:49;;;;;;;2.30;1.40;;;;;;;;;;5006313;23;20244;-53
2021/05/09 12:45:15;;;;;;;1.40;1.30;;;;;;;;;;4988126;28;20201;-54
2021/05/09 12:47:40;;;;;;;2.65;1.30;;;;;;;;;;4970159;28;20192;-54
2021/05/09 12:50:08;;;;;;;1.83;1.10;;;;;;;;;;4985365;28;20679;-55
2021/05/09 12:52:46;;;;;;;1.40;1.30;;;;;;;;;;4968865;28;20569;-55
2021/05/09 12:55:25;;;;;;;1.92;1.27;;;;;;;;;;4971031;28;20610;-54
2021/05/09 12:58:15;;;;;;;1.65;1.00;;;;;;;;;;4967923;28;20625;-54
2021/05/09 13:00:41;;;;;;;2.63;1.20;;;;;;;;;;4968359;28;20300;-54
2021/05/09 13:03:07;;;;;;;1.83;1.30;;;;;;;;;;4947494;28;20640;-53
2021/05/09 13:05:32;;;;;;;1.40;1.10;;;;;;;;;;4949686;28;20195;-55
2021/05/09 13:07:57;;;;;;;2.85;1.40;;;;;;;;;;4967571;28;20220;-54
2021/05/09 13:10:24;;;;;;;1.30;1.20;;;;;;;;;;4969695;28;20279;-53
2021/05/09 13:12:52;;;;;;;2.20;1.40;;;;;;;;;;4974063;28;20192;-55
2021/05/09 13:15:18;;;;;;;1.17;1.10;;;;;;;;;;4970163;28;20828;-55
2021/05/09 13:17:43;;;;;;;3.97;1.67;;;;;;;;;;4968853;28;20218;-54
2021/05/09 13:20:10;;;;;;;3.88;1.20;;;;;;;;;;4971106;28;20259;-54
2021/05/09 13:22:35;;;;;;;3.58;1.10;;;;;;;;;;4950078;28;20207;-54
2021/05/09 13:25:02;;;;;;;1.15;1.10;;;;;;;;;;4968010;28;20181;-55
2021/05/09 13:27:28;;;;;;;2.35;1.70;;;;;;;;;;4949143;28;20193;-54
2021/05/09 13:29:54;;;;;;;1.88;1.52;;;;;;;;;;4969789;28;20173;-55
2021/05/09 13:32:21;;;;;;;2.53;1.35;;;;;;;;;;4951612;28;20676;-55
2021/05/09 13:34:47;;;;;;;1.77;1.20;;;;;;;;;;4969392;28;20208;-55
2021/05/09 13:37:12;;;;;;;1.85;1.70;;;;;;;;;;4950813;28;20244;-54
2021/05/09 13:39:43;;;;;;;2.20;1.65;;;;;;;;;;4967551;28;20189;-55
2021/05/09 13:42:08;;;;;;;2.03;1.55;;;;;;;;;;4966866;28;20220;-55
2021/05/09 13:44:36;;;;;;;6.68;1.20;;;;;;;;;;4950335;28;20537;-55
2021/05/09 13:47:01;;;;;;;1.52;1.27;;;;;;;;;;4966842;28;20188;-54
2021/05/09 13:49:26;;;;;;;2.15;1.33;;;;;;;;;;4965982;28;20193;-55
2021/05/09 13:51:52;;;;;;;5.15;1.45;;;;;;;;;;4963512;28;20213;-55
2021/05/09 13:54:17;;;;;;;1.30;1.20;;;;;;;;;;4966453;28;20220;-55
2021/05/09 13:56:43;;;;;;;1.65;1.17;;;;;;;;;;4952463;28;20706;-55
2021/05/09 13:59:08;;;;;;;2.08;1.30;;;;;;;;;;4969222;28;20176;-54
2021/05/09 14:01:33;;;;;;;1.42;1.33;;;;;;;;;;4967923;28;20204;-55
2021/05/09 14:04:00;;;;;;;1.77;1.10;;;;;;;;;;4967046;28;20223;-54
2021/05/09 14:06:27;;;;;;;1.23;1.10;;;;;;;;;;4949509;28;20225;-54
2021/05/09 14:08:55;;;;;;;1.33;1.23;;;;;;;;;;4967375;28;20239;-55
2021/05/09 14:11:23;;;;;;;1.45;1.35;;;;;;;;;;4949822;28;20703;-54
2021/05/09 14:13:48;;;;;;;1.27;1.17;;;;;;;;;;4949934;28;20629;-54
2021/05/09 14:16:16;;;;;;;1.20;1.10;;;;;;;;;;4969631;28;20188;-55
2021/05/09 14:18:41;;;;;;;1.48;1.02;;;;;;;;;;4967492;28;20193;-55
2021/05/09 14:21:06;;;;;;;4.03;1.42;;;;;;;;;;4969055;28;20209;-54
2021/05/09 14:23:36;;;;;;;1.55;1.38;;;;;;;;;;4950528;28;20196;-55
2021/05/09 14:26:01;;;;;;;2.00;1.10;;;;;;;;;;4965331;28;20828;-55
2021/05/09 14:28:27;;;;;;;1.30;1.20;;;;;;;;;;4967696;28;20248;-54
2021/05/09 14:30:55;;;;;;;2.25;1.13;;;;;;;;;;4967836;28;20242;-52
2021/05/09 14:33:20;;;;;;;1.20;1.10;;;;;;;;;;4965864;28;20199;-55
2021/05/09 14:35:46;;;;;;;2.28;1.40;;;;;;;;;;4949538;28;20192;-55
2021/05/09 14:38:12;;;;;;;1.42;1.10;;;;;;;;;;4950281;28;20219;-56
2021/05/09 14:40:37;;;;;;;1.38;1.17;;;;;;;;;;4965120;28;20232;-56
2021/05/09 14:43:02;;;;;;;1.35;1.10;;;;;;;;;;4967239;28;20188;-55
2021/05/09 14:45:28;;;;;;;1.75;1.23;;;;;;;;;;4968203;28;20189;-54
2021/05/09 14:47:56;;;;;;;1.00;1.00;;;;;;;;;;4967226;28;20212;-54
2021/05/09 14:50:21;;;;;;;1.30;1.20;;;;;;;;;;4960505;28;20180;-56
2021/05/09 14:52:46;;;;;;;1.50;1.02;;;;;;;;;;4948954;28;20195;-56
2021/05/09 14:55:12;;;;;;;6.38;3.20;;;;;;;;;;4967002;28;20192;-56